Flight Track Log - Related Links

Times and Time Zones

All times are in EST time to prevent confusion due to time zone crossing. See the N6711L flight status page for this flight to view local times or setup timezone preferences in your user account.

Time Position Orientation Groundspeed Altitude Reporting Facility
EST Latitude Longitude Course Direction KTS MPH feet Rate Location/Type
Tue 11:07:21 AM 26.1497 -81.5964 102° East 177 204 5,100  Level Miami Center
Tue 11:08:21 AM 26.1578 -81.5436 80° East 177 204 5,200 50 Climbing Miami Center
Tue 11:09:00 AM 26.0062 -81.5066 138° Southeast  Level Estimated
Tue 11:09:21 AM 26.1444 -81.4992 108° East 169 194 5,200  Level Miami Center
Tue 11:10:00 AM 25.9817 -81.4618 110° East  Level Estimated
Tue 11:10:21 AM 26.1231 -81.4567 119° Southeast 158 182 5,200  Level Miami Center
Tue 11:11:00 AM 25.9716 -81.4107 102° East  Level FlightAware Approximate
Tue 11:11:21 AM 26.0950 -81.4139 126° Southeast 163 188 5,200  Level Miami Center
Tue 11:12:21 AM 26.0672 -81.3711 126° Southeast 163 188 5,200  Level Miami Center
Tue 11:13:21 AM 26.0392 -81.3286 126° Southeast 163 188 5,200  Level Miami Center
Tue 11:14:21 AM 26.0114 -81.2836 124° Southeast 168 193 5,200  Level Miami Center
Tue 11:15:21 AM 25.9814 -81.2339 124° Southeast 173 199 5,200  Level Miami Center
Tue 11:16:21 AM 25.9642 -81.1847 111° Southeast 173 199 5,200  Level Miami Center
Tue 11:16:27 AM 25.9558 -81.1800 153° Southeast 177 204 5,200  Level Miami Center
Tue 11:17:21 AM 25.9511 -81.1358 97° East 173 199 5,200  Level Miami Center
Tue 11:17:47 AM 25.9350 -81.1122 127° Southeast 178 205 5,200  Level Miami Center
Tue 11:18:21 AM 25.9317 -81.0867 98° East 173 199 5,200  Level Miami Center
Tue 11:18:49 AM 25.9178 -81.0561 117° Southeast 179 206 5,200  Level Miami Center
Tue 11:19:21 AM 25.9164 -81.0331 94° East 173 199 5,200  Level Miami Center
Tue 11:19:50 AM 25.9025 -81.0072 121° Southeast 177 204 5,200  Level Miami Center
Tue 11:20:21 AM 25.8992 -80.9817 98° East 173 199 5,200  Level Miami Center
Tue 11:20:51 AM 25.8894 -80.9514 110° East 179 206 5,200  Level Miami Center
Tue 11:21:21 AM 25.8900 -80.9306 88° East 173 199 5,200  Level Miami Center
Tue 11:21:58 AM 25.8806 -80.8933 106° East 175 201 5,200 -100 Level Miami Center
Tue 11:22:21 AM 25.8769 -80.8769 104° East 168 193 5,100 -677 Descending Miami Center
Tue 11:23:00 AM 25.8397 -80.8594 157° South 187 215 4,500 -700 Descending Miami Center
Tue 11:23:21 AM 25.8336 -80.8503 127° Southeast 163 188 4,400 -436 Descending Miami Center
Tue 11:23:55 AM 25.7986 -80.8328 156° South 182 209 4,100 -200 Descending Miami Center
Tue 11:24:21 AM 25.7906 -80.8233 133° Southeast 168 193 4,200 -97 Climbing Miami Center
Tue 11:24:57 AM 25.7575 -80.8083 158° South 162 186 4,000 -300 Descending Miami Center
Tue 11:25:21 AM 25.7472 -80.8011 148° Southeast 168 193 3,900 197 Descending Miami Center
Tue 11:25:58 AM 25.7164 -80.7839 153° Southeast 161 185 4,200 146 Climbing Miami Center
Tue 11:26:43 AM 25.6875 -80.7692 155° Southeast 155 178 4,100  Descending Miami Center
Tue 11:27:37 AM 25.6547 -80.7497 152° Southeast 156 180 4,200 52 Climbing Miami Center
Tue 11:28:38 AM 25.6203 -80.7142 137° Southeast 163 188 4,200  Level Miami Center
Tue 11:29:38 AM 25.5961 -80.6719 122° Southeast 159 183 4,200  Level Miami Center
Tue 11:30:39 AM 25.5700 -80.6364 129° Southeast 160 184 4,200  Level Miami Center
Tue 11:31:40 AM 25.5417 -80.5942 127° Southeast 159 183 4,200  Level Miami Center
Tue 11:32:40 AM 25.5178 -80.5567 125° Southeast 158 182 4,200 50 Level Miami Center
Tue 11:33:41 AM 25.4872 -80.5189 132° Southeast 159 183 4,300 -595 Climbing Miami Center
Tue 11:34:41 AM 25.4572 -80.4697 124° Southeast 190 219 3,000 -942 Descending Miami Center
Tue 11:35:42 AM 25.4289 -80.4297 128° Southeast 181 208 2,400 -590 Descending Miami Center

Login

Don't have an account? Register now (free) for customized features, flight alerts, and more!